createdAt,value
2017-10-20T00:01:11.282Z,32.00
2017-10-20T00:03:38.774Z,35.13
2017-10-20T00:06:06.291Z,32.43
2017-10-20T00:08:34.550Z,38.93
2017-10-20T00:11:02.860Z,35.47
2017-10-20T00:13:30.354Z,33.77
2017-10-20T00:15:57.866Z,35.13
2017-10-20T00:18:25.358Z,38.13
2017-10-20T00:20:52.853Z,36.80
2017-10-20T00:23:20.370Z,36.40
2017-10-20T00:25:47.865Z,36.20
2017-10-20T00:28:15.391Z,33.17
2017-10-20T00:30:42.890Z,37.80
2017-10-20T00:33:10.406Z,38.90
2017-10-20T00:35:37.899Z,35.40
2017-10-20T00:38:05.430Z,30.43
2017-10-20T00:40:32.926Z,35.30
2017-10-20T00:43:00.434Z,30.77
2017-10-20T00:45:27.946Z,33.00
2017-10-20T00:47:56.201Z,31.60
2017-10-20T00:50:23.722Z,32.67
2017-10-20T00:52:51.223Z,29.00
2017-10-20T00:55:19.507Z,29.37
2017-10-20T00:57:47.777Z,30.57
2017-10-20T01:00:16.061Z,30.57
2017-10-20T01:02:44.318Z,31.37
2017-10-20T01:05:11.833Z,29.17
2017-10-20T01:07:39.327Z,37.10
2017-10-20T01:10:06.821Z,29.73
2017-10-20T01:12:34.347Z,29.83
2017-10-20T01:15:01.839Z,31.17
2017-10-20T01:17:29.355Z,32.87
2017-10-20T01:19:56.854Z,30.40
2017-10-20T01:22:24.370Z,31.00
2017-10-20T01:24:51.867Z,31.10
2017-10-20T01:27:19.390Z,31.63
2017-10-20T01:29:46.886Z,29.97
2017-10-20T01:32:14.381Z,31.30
2017-10-20T01:34:41.899Z,32.80
2017-10-20T01:37:09.394Z,32.87
2017-10-20T01:39:36.916Z,38.30
2017-10-20T01:42:04.419Z,32.50
2017-10-20T01:44:31.946Z,32.93
2017-10-20T01:46:59.438Z,38.30
2017-10-20T01:49:26.933Z,35.93
2017-10-20T01:51:55.218Z,29.23
2017-10-20T01:54:22.734Z,32.07
2017-10-20T01:56:50.259Z,30.07
2017-10-20T01:59:17.758Z,29.30
2017-10-20T02:01:45.275Z,29.80
2017-10-20T02:04:12.799Z,33.73
2017-10-20T02:06:40.314Z,33.30
2017-10-20T02:09:07.810Z,35.37
2017-10-20T02:11:35.326Z,31.87
2017-10-20T02:14:02.820Z,29.80
2017-10-20T02:16:31.110Z,28.53
2017-10-20T02:18:58.618Z,29.77
2017-10-20T02:21:26.130Z,29.97
2017-10-20T02:23:53.631Z,34.03
2017-10-20T02:26:21.147Z,30.17
2017-10-20T02:28:48.643Z,33.40
2017-10-20T02:31:16.927Z,29.50
2017-10-20T02:33:45.191Z,32.63
2017-10-20T02:36:12.711Z,36.90
2017-10-20T02:38:40.202Z,27.60
2017-10-20T02:41:07.714Z,27.43
2017-10-20T02:43:35.208Z,29.50
2017-10-20T02:46:02.722Z,29.20
2017-10-20T02:48:30.223Z,32.00
2017-10-20T02:50:57.750Z,30.83
2017-10-20T02:53:25.246Z,32.87
2017-10-20T02:55:52.763Z,33.43
2017-10-20T02:58:21.018Z,27.67
2017-10-20T03:00:48.539Z,30.27
2017-10-20T03:03:16.030Z,30.50
2017-10-20T03:05:43.551Z,36.63
2017-10-20T03:08:11.047Z,31.77
2017-10-20T03:10:38.567Z,28.23
2017-10-20T03:13:06.058Z,31.83
2017-10-20T03:15:33.569Z,29.37
2017-10-20T03:18:01.826Z,31.30
2017-10-20T03:20:29.341Z,31.07
2017-10-20T03:22:56.839Z,28.43
2017-10-20T03:25:24.358Z,33.10
2017-10-20T03:27:51.863Z,34.13
2017-10-20T03:30:19.379Z,36.73
2017-10-20T03:32:46.878Z,52.10
2017-10-20T03:35:14.394Z,33.60
2017-10-20T03:37:41.886Z,31.23
2017-10-20T03:40:09.398Z,27.70
2017-10-20T03:42:37.678Z,27.47
2017-10-20T03:45:05.958Z,27.70
2017-10-20T03:47:33.462Z,28.23
2017-10-20T03:50:01.755Z,37.63
2017-10-20T03:52:29.254Z,24.43
2017-10-20T03:54:56.776Z,28.97
2017-10-20T03:57:24.270Z,31.20
2017-10-20T03:59:51.782Z,27.30
2017-10-20T04:02:19.275Z,32.47
2017-10-20T04:04:46.794Z,26.57
2017-10-20T04:07:15.055Z,27.53
2017-10-20T04:09:43.334Z,27.53
2017-10-20T04:12:11.598Z,30.13
2017-10-20T04:14:39.113Z,35.20
2017-10-20T04:17:06.610Z,27.70
2017-10-20T04:19:34.129Z,28.07
2017-10-20T04:22:01.631Z,30.20
2017-10-20T04:24:29.151Z,29.67
2017-10-20T04:26:56.692Z,40.20
2017-10-20T04:29:24.206Z,28.10
2017-10-20T04:31:51.708Z,29.50
2017-10-20T04:34:19.225Z,32.57
2017-10-20T04:36:47.196Z,32.63
2017-10-20T04:39:14.717Z,30.00
2017-10-20T04:41:42.215Z,30.30
2017-10-20T04:44:09.730Z,31.90
2017-10-20T04:46:37.228Z,30.37
2017-10-20T04:49:04.747Z,31.93
2017-10-20T04:51:32.241Z,33.33
2017-10-20T04:53:59.759Z,31.67
2017-10-20T04:56:27.253Z,30.03
2017-10-20T04:58:54.767Z,35.70
2017-10-20T05:01:22.273Z,36.70
2017-10-20T05:03:49.786Z,37.57
2017-10-20T05:06:17.286Z,30.57
2017-10-20T05:08:46.426Z,31.83
2017-10-20T05:11:14.691Z,34.33
2017-10-20T05:13:42.978Z,30.63
2017-10-20T05:16:11.238Z,29.50
2017-10-20T05:18:38.759Z,36.07
2017-10-20T05:21:06.250Z,33.10
2017-10-20T05:23:33.770Z,31.23
2017-10-20T05:26:01.262Z,33.03
2017-10-20T05:28:28.773Z,29.53
2017-10-20T05:30:56.270Z,30.00
2017-10-20T05:33:23.786Z,31.90
2017-10-20T05:35:51.286Z,28.93
2017-10-20T05:38:18.810Z,36.40
2017-10-20T05:40:46.309Z,29.03
2017-10-20T05:43:13.830Z,37.13
2017-10-20T05:45:41.350Z,35.60
2017-10-20T05:48:09.635Z,34.00
2017-10-20T05:50:37.900Z,33.03
2017-10-20T05:53:06.187Z,30.03
2017-10-20T05:55:34.445Z,34.43
2017-10-20T05:58:01.958Z,32.93
2017-10-20T06:00:29.452Z,32.27
2017-10-20T06:02:56.956Z,31.63
2017-10-20T06:05:24.494Z,31.67
2017-10-20T06:07:52.000Z,40.40
2017-10-20T06:10:19.522Z,33.90
2017-10-20T06:12:47.015Z,35.73
2017-10-20T06:15:14.534Z,31.53
2017-10-20T06:17:42.039Z,32.63
2017-10-20T06:20:09.704Z,34.17
2017-10-20T06:22:37.202Z,33.43
2017-10-20T06:25:04.736Z,33.13
2017-10-20T06:27:32.238Z,36.50
2017-10-20T06:29:59.751Z,39.10
2017-10-20T06:32:27.245Z,33.77
2017-10-20T06:34:54.796Z,32.00
2017-10-20T06:37:22.294Z,32.77
2017-10-20T06:39:50.582Z,37.53
2017-10-20T06:42:18.841Z,36.50
2017-10-20T06:44:47.118Z,31.93
2017-10-20T06:47:15.475Z,33.40
2017-10-20T06:49:42.998Z,30.20
2017-10-20T06:52:10.510Z,31.17
2017-10-20T06:54:38.835Z,33.10
2017-10-20T06:57:06.334Z,42.47
2017-10-20T06:59:34.615Z,38.50
2017-10-20T07:02:03.275Z,37.77
2017-10-20T07:04:30.790Z,42.10
2017-10-20T07:06:58.281Z,36.17
2017-10-20T07:09:25.804Z,38.10
2017-10-20T07:11:53.307Z,50.87
2017-10-20T07:14:20.843Z,41.80
2017-10-20T07:16:48.338Z,39.83
2017-10-20T07:19:21.391Z,36.47
2017-10-20T07:21:48.887Z,37.53
2017-10-20T07:24:16.531Z,34.10
2017-10-20T07:26:44.794Z,34.60
2017-10-20T07:29:12.314Z,34.97
2017-10-20T07:31:39.810Z,32.87
2017-10-20T07:34:07.347Z,28.00
2017-10-20T07:36:34.847Z,35.17
2017-10-20T07:39:03.134Z,35.50
2017-10-20T07:41:30.635Z,32.87
2017-10-20T07:43:58.162Z,33.70
2017-10-20T07:46:25.670Z,33.73
2017-10-20T07:48:53.195Z,40.50
2017-10-20T07:51:20.686Z,34.83
2017-10-20T07:53:48.691Z,37.13
2017-10-20T07:56:16.198Z,39.83
2017-10-20T07:58:43.737Z,35.33
2017-10-20T08:01:11.241Z,38.13
2017-10-20T08:03:38.759Z,34.60
2017-10-20T08:06:06.291Z,41.60
2017-10-20T08:08:33.811Z,40.07
2017-10-20T08:11:01.310Z,36.67
2017-10-20T08:13:28.838Z,36.23
2017-10-20T08:15:57.099Z,33.70
2017-10-20T08:18:24.622Z,38.60
2017-10-20T08:20:52.122Z,33.57
2017-10-20T08:23:19.758Z,33.53
2017-10-20T08:25:47.251Z,37.90
2017-10-20T08:28:15.539Z,40.33
2017-10-20T08:30:43.794Z,38.40
2017-10-20T08:33:11.306Z,39.37
2017-10-20T08:35:38.800Z,40.50
2017-10-20T08:38:06.314Z,35.53
2017-10-20T08:40:33.805Z,40.43
2017-10-20T08:43:01.322Z,36.60
2017-10-20T08:45:28.823Z,35.90
2017-10-20T08:47:56.336Z,43.90
2017-10-20T08:50:23.838Z,35.63
2017-10-20T08:52:51.354Z,40.20
2017-10-20T08:55:18.854Z,41.07
2017-10-20T08:57:46.384Z,44.37
2017-10-20T09:00:13.902Z,39.13
2017-10-20T09:02:42.194Z,39.57
2017-10-20T09:05:10.457Z,34.80
2017-10-20T09:07:38.744Z,42.10
2017-10-20T09:10:07.006Z,40.83
2017-10-20T09:12:34.541Z,36.30
2017-10-20T09:15:02.446Z,41.47
2017-10-20T09:17:29.962Z,41.57
2017-10-20T09:19:58.218Z,39.50
2017-10-20T09:22:25.743Z,43.70
2017-10-20T09:24:53.234Z,43.37
2017-10-20T09:27:21.514Z,39.80
2017-10-20T09:29:49.783Z,44.10
2017-10-20T09:32:18.072Z,44.60
2017-10-20T09:34:46.330Z,47.40
2017-10-20T09:37:13.850Z,40.00
2017-10-20T09:39:41.342Z,46.37
2017-10-20T09:42:08.910Z,40.90
2017-10-20T09:44:36.406Z,44.33
2017-10-20T09:47:03.922Z,43.73
2017-10-20T09:49:31.426Z,40.03
2017-10-20T09:51:58.967Z,40.90
2017-10-20T09:54:26.474Z,46.93
2017-10-20T09:56:54.758Z,41.70
2017-10-20T09:59:22.258Z,41.33
2017-10-20T10:01:49.774Z,47.37
2017-10-20T10:04:17.266Z,41.17
2017-10-20T10:06:44.778Z,44.87
2017-10-20T10:09:13.038Z,47.00
2017-10-20T10:11:40.558Z,41.03
2017-10-20T10:14:08.062Z,39.60
2017-10-20T10:16:36.342Z,42.67
2017-10-20T10:19:03.846Z,42.57
2017-10-20T10:21:31.362Z,42.30
2017-10-20T10:23:58.856Z,44.13
2017-10-20T10:26:26.353Z,45.10
2017-10-20T10:28:53.871Z,44.07
2017-10-20T10:31:22.139Z,42.47
2017-10-20T10:33:50.421Z,38.07
2017-10-20T10:36:18.682Z,50.77
2017-10-20T10:38:46.197Z,37.67
2017-10-20T10:41:13.694Z,34.20
2017-10-20T10:43:41.214Z,35.33
2017-10-20T10:46:08.710Z,36.80
2017-10-20T10:48:37.738Z,31.63
2017-10-20T10:51:05.248Z,35.60
2017-10-20T10:53:33.534Z,31.20
2017-10-20T10:56:01.026Z,40.50
2017-10-20T10:58:28.547Z,36.60
2017-10-20T11:00:57.553Z,37.60
2017-10-20T11:03:25.839Z,40.57
2017-10-20T11:06:06.048Z,37.57
2017-10-20T11:08:45.453Z,35.63
2017-10-20T11:11:24.726Z,32.27
2017-10-20T11:13:52.242Z,31.47
2017-10-20T11:16:19.740Z,34.20
2017-10-20T11:18:47.263Z,32.50
2017-10-20T11:21:14.768Z,29.40
2017-10-20T11:23:42.291Z,30.37
2017-10-20T11:26:10.555Z,26.87
2017-10-20T11:28:38.846Z,31.43
2017-10-20T11:31:06.337Z,29.73
2017-10-20T11:33:33.865Z,29.87
2017-10-20T11:36:01.367Z,30.57
2017-10-20T11:38:28.884Z,26.40
2017-10-20T11:40:56.382Z,24.83
2017-10-20T11:43:23.903Z,26.93
2017-10-20T11:45:51.399Z,24.07
2017-10-20T11:48:18.918Z,28.50
2017-10-20T11:50:46.415Z,22.73
2017-10-20T11:53:13.942Z,27.77
2017-10-20T11:55:41.442Z,20.83
2017-10-20T11:58:08.957Z,19.70
2017-10-20T12:00:36.466Z,21.13
2017-10-20T12:03:03.991Z,21.27
2017-10-20T12:05:31.486Z,22.60
2017-10-20T12:07:59.003Z,14.97
2017-10-20T12:10:26.493Z,15.30
2017-10-20T12:12:54.011Z,31.80
2017-10-20T12:15:21.515Z,12.63
2017-10-20T12:17:49.035Z,14.53
2017-10-20T12:20:16.534Z,18.57
2017-10-20T12:22:44.047Z,14.00
2017-10-20T12:25:11.546Z,12.43
2017-10-20T12:27:39.066Z,12.97
2017-10-20T12:30:06.554Z,8.60
2017-10-20T12:32:34.063Z,9.83
2017-10-20T12:35:01.594Z,7.60
2017-10-20T12:37:32.022Z,6.60
2017-10-20T12:40:01.818Z,7.73
2017-10-20T12:42:29.334Z,7.40
2017-10-20T12:44:56.822Z,7.03
2017-10-20T12:47:24.334Z,7.43
2017-10-20T12:49:51.822Z,6.83
2017-10-20T12:52:19.330Z,7.23
2017-10-20T12:54:46.818Z,6.40
2017-10-20T12:57:15.094Z,6.10
2017-10-20T12:59:42.581Z,6.27
2017-10-20T13:02:10.866Z,8.80
2017-10-20T13:04:38.427Z,7.43
2017-10-20T13:07:06.707Z,6.00
2017-10-20T13:09:34.962Z,6.60
2017-10-20T13:12:02.478Z,5.17
2017-10-20T13:14:29.965Z,6.97
2017-10-20T13:16:58.243Z,5.80
2017-10-20T13:19:25.731Z,5.30
2017-10-20T13:21:53.246Z,10.37
2017-10-20T13:24:20.738Z,5.77
2017-10-20T13:26:48.250Z,5.77
2017-10-20T13:29:15.738Z,9.50
2017-10-20T13:31:43.250Z,6.20
2017-10-20T13:34:11.511Z,5.57
2017-10-20T13:36:39.031Z,6.53
2017-10-20T13:39:07.286Z,7.30
2017-10-20T13:41:35.844Z,5.50
2017-10-20T13:44:03.341Z,5.60
2017-10-20T13:46:31.919Z,6.00
2017-10-20T13:48:59.412Z,10.93
2017-10-20T13:51:26.922Z,7.27
2017-10-20T13:53:54.410Z,6.43
2017-10-20T13:56:22.695Z,6.23
2017-10-20T13:58:50.190Z,9.70
2017-10-20T14:01:17.702Z,6.50
2017-10-20T14:03:45.198Z,6.87
2017-10-20T14:06:13.478Z,6.10
2017-10-20T14:08:41.730Z,6.80
2017-10-20T14:11:09.246Z,6.40
2017-10-20T14:13:36.857Z,9.47
2017-10-20T14:16:04.365Z,6.80
2017-10-20T14:18:31.853Z,6.50
2017-10-20T14:20:59.380Z,10.87
2017-10-20T14:23:27.643Z,6.67
2017-10-20T14:25:55.922Z,9.33
2017-10-20T14:28:24.178Z,6.53
2017-10-20T14:30:51.686Z,6.77
2017-10-20T14:33:19.175Z,7.03
2017-10-20T14:35:46.687Z,9.10
2017-10-20T14:38:14.944Z,10.50
2017-10-20T14:40:42.461Z,7.43
2017-10-20T14:43:09.952Z,8.67
2017-10-20T14:45:37.443Z,9.43
2017-10-20T14:48:04.960Z,9.20
2017-10-20T14:50:32.468Z,12.10
2017-10-20T14:52:59.982Z,13.40
2017-10-20T14:55:27.473Z,7.43
2017-10-20T14:57:55.766Z,6.60
2017-10-20T15:00:23.254Z,5.93
2017-10-20T15:02:50.766Z,5.87
2017-10-20T15:05:19.023Z,7.43
2017-10-20T15:07:46.538Z,5.47
2017-10-20T15:10:14.030Z,5.90
2017-10-20T15:12:41.539Z,5.87
2017-10-20T15:15:09.027Z,5.70
2017-10-20T15:17:36.537Z,7.50
2017-10-20T15:20:04.799Z,6.67
2017-10-20T15:22:33.076Z,8.63
2017-10-20T15:25:01.330Z,8.50
2017-10-20T15:27:28.845Z,8.27
2017-10-20T15:29:56.334Z,6.77
2017-10-20T15:32:23.842Z,6.33
2017-10-20T15:34:51.334Z,9.80
2017-10-20T15:37:18.855Z,7.43
2017-10-20T15:39:47.110Z,6.77
2017-10-20T15:42:14.630Z,7.90
2017-10-20T15:44:42.118Z,6.50
2017-10-20T15:47:09.631Z,8.33
2017-10-20T15:49:37.134Z,6.87
2017-10-20T15:52:04.658Z,7.30
2017-10-20T15:54:32.146Z,7.30
2017-10-20T15:56:59.650Z,9.20
2017-10-20T15:59:27.137Z,7.90
2017-10-20T16:01:54.646Z,9.03
2017-10-20T16:04:22.903Z,7.13
2017-10-20T16:06:50.411Z,7.93
2017-10-20T16:09:17.902Z,10.97
2017-10-20T16:11:45.416Z,7.23
2017-10-20T16:14:12.907Z,8.03
2017-10-20T16:16:41.186Z,7.77
2017-10-20T16:19:10.187Z,7.50
2017-10-20T16:21:37.717Z,7.70
2017-10-20T16:24:05.210Z,7.77
2017-10-20T16:26:33.490Z,7.30
2017-10-20T16:29:01.748Z,7.50
2017-10-20T16:31:29.263Z,10.83
2017-10-20T16:33:56.758Z,10.03
2017-10-20T16:36:24.270Z,9.30
2017-10-20T16:38:51.768Z,9.10
2017-10-20T16:41:19.314Z,9.07
2017-10-20T16:43:46.802Z,7.80
2017-10-20T16:46:14.315Z,7.60
2017-10-20T16:48:41.810Z,13.87
2017-10-20T16:51:09.324Z,5.90
2017-10-20T16:53:36.815Z,10.50
2017-10-20T16:56:04.333Z,11.63
2017-10-20T16:58:32.581Z,5.53
2017-10-20T17:01:00.858Z,6.17
2017-10-20T17:03:28.346Z,5.60
2017-10-20T17:05:55.862Z,5.90
2017-10-20T17:08:23.351Z,5.00
2017-10-20T17:10:51.626Z,5.67
2017-10-20T17:13:19.882Z,4.60
2017-10-20T17:15:48.165Z,9.40
2017-10-20T17:18:15.658Z,7.97
2017-10-20T17:20:43.182Z,37.03
2017-10-20T17:23:10.674Z,12.57
2017-10-20T17:25:38.192Z,5.13
2017-10-20T17:28:06.456Z,5.20
2017-10-20T17:30:34.731Z,5.03
2017-10-20T17:33:03.730Z,5.60
2017-10-20T17:35:32.007Z,3.87
2017-10-20T17:38:00.267Z,3.17
2017-10-20T17:40:28.564Z,4.20
2017-10-20T17:42:56.818Z,4.87
2017-10-20T17:45:24.329Z,2.90
2017-10-20T17:47:51.823Z,3.37
2017-10-20T17:50:19.335Z,4.07
2017-10-20T17:52:46.826Z,1.97
2017-10-20T17:55:14.338Z,38.63
2017-10-20T17:57:41.830Z,26.10
2017-10-20T18:00:10.107Z,3.97
2017-10-20T18:02:38.362Z,5.53
2017-10-20T18:05:05.879Z,2.67
2017-10-20T18:07:33.366Z,2.40
2017-10-20T18:10:00.878Z,2.53
2017-10-20T18:12:29.136Z,4.27
2017-10-20T18:14:56.654Z,2.83
2017-10-20T18:17:24.142Z,3.13
2017-10-20T18:19:51.665Z,3.10
2017-10-20T18:22:19.158Z,2.50
2017-10-20T18:24:46.646Z,3.57
2017-10-20T18:27:14.176Z,2.63
2017-10-20T18:29:42.440Z,3.10
2017-10-20T18:32:09.963Z,10.50
2017-10-20T18:34:37.458Z,15.80
2017-10-20T18:37:04.986Z,11.80
2017-10-20T18:39:32.475Z,3.23
2017-10-20T18:42:00.001Z,6.17
2017-10-20T18:44:27.494Z,2.73
2017-10-20T18:46:55.022Z,3.23
2017-10-20T18:49:22.510Z,4.63
2017-10-20T18:51:50.019Z,3.00
2017-10-20T18:54:17.510Z,3.17
2017-10-20T18:56:45.022Z,3.03
2017-10-20T18:59:12.515Z,2.87
2017-10-20T19:01:40.028Z,3.10
2017-10-20T19:04:07.523Z,2.20
2017-10-20T19:06:35.029Z,2.77
2017-10-20T19:09:02.519Z,4.87
2017-10-20T19:11:30.031Z,5.93
2017-10-20T19:13:57.518Z,6.80
2017-10-20T19:16:25.045Z,5.50
2017-10-20T19:18:52.534Z,3.70
2017-10-20T19:21:20.810Z,5.37
2017-10-20T19:23:49.066Z,5.40
2017-10-20T19:26:16.579Z,3.43
2017-10-20T19:28:44.845Z,3.73
2017-10-20T19:31:13.125Z,6.30
2017-10-20T19:33:41.377Z,4.37
2017-10-20T19:36:08.886Z,5.10
2017-10-20T19:38:36.382Z,10.47
2017-10-20T19:41:03.901Z,3.00
2017-10-20T19:43:31.397Z,2.60
2017-10-20T19:45:58.910Z,4.27
2017-10-20T19:48:26.403Z,4.43
2017-10-20T19:50:53.914Z,4.33
2017-10-20T19:53:22.170Z,3.97
2017-10-20T19:55:49.683Z,8.63
2017-10-20T19:58:17.170Z,3.37
2017-10-20T20:00:44.682Z,4.00
2017-10-20T20:03:12.174Z,3.33
2017-10-20T20:05:39.682Z,4.70
2017-10-20T20:08:07.933Z,3.40
2017-10-20T20:10:35.442Z,6.93
2017-10-20T20:13:02.930Z,4.27
2017-10-20T20:15:30.443Z,6.73
2017-10-20T20:17:58.698Z,4.77
2017-10-20T20:20:26.974Z,5.70
2017-10-20T20:22:54.466Z,4.43
2017-10-20T20:25:21.973Z,4.80
2017-10-20T20:27:49.458Z,4.57
2017-10-20T20:30:16.970Z,5.00
2017-10-20T20:32:44.454Z,9.33
2017-10-20T20:35:11.959Z,7.83
2017-10-20T20:37:40.210Z,8.07
2017-10-20T20:40:07.723Z,14.53
2017-10-20T20:42:35.210Z,4.40
2017-10-20T20:45:02.722Z,3.27
2017-10-20T20:47:30.219Z,54.50
2017-10-20T20:49:57.730Z,3.10
2017-10-20T20:52:25.219Z,4.80
2017-10-20T20:54:52.710Z,4.50
2017-10-20T20:57:20.986Z,4.40
2017-10-20T20:59:48.479Z,4.23
2017-10-20T21:02:15.991Z,4.10
2017-10-20T21:04:43.487Z,7.37
2017-10-20T21:07:11.000Z,7.10
2017-10-20T21:09:38.490Z,5.23
2017-10-20T21:12:06.771Z,4.20
2017-10-20T21:14:35.026Z,4.40
2017-10-20T21:17:02.540Z,5.73
2017-10-20T21:19:30.030Z,2.80
2017-10-20T21:21:57.539Z,4.03
2017-10-20T21:24:25.794Z,2.90
2017-10-20T21:26:54.074Z,3.80
2017-10-20T21:29:22.330Z,3.10
2017-10-20T21:31:49.838Z,6.27
2017-10-20T21:34:17.330Z,6.63
2017-10-20T21:36:44.837Z,2.60
2017-10-20T21:39:13.105Z,6.93
2017-10-20T21:41:41.387Z,6.60
2017-10-20T21:44:09.642Z,2.93
2017-10-20T21:46:37.152Z,6.80
2017-10-20T21:49:04.646Z,3.27
2017-10-20T21:51:32.162Z,3.13
2017-10-20T21:53:59.661Z,7.60
2017-10-20T21:56:27.197Z,3.47
2017-10-20T21:58:54.687Z,2.70
2017-10-20T22:01:22.200Z,4.50
2017-10-20T22:03:49.690Z,4.50
2017-10-20T22:06:17.202Z,4.67
2017-10-20T22:08:45.455Z,8.63
2017-10-20T22:11:13.734Z,8.70
2017-10-20T22:13:41.222Z,2.73
2017-10-20T22:16:08.735Z,6.73
2017-10-20T22:18:36.226Z,9.00
2017-10-20T22:21:04.506Z,7.60
2017-10-20T22:23:31.995Z,6.70
2017-10-20T22:25:59.507Z,3.67
2017-10-20T22:28:27.762Z,3.43
2017-10-20T22:30:55.278Z,2.50
2017-10-20T22:33:22.770Z,6.70
2017-10-20T22:35:50.274Z,4.57
2017-10-20T22:38:17.766Z,4.40
2017-10-20T22:40:45.278Z,9.23
2017-10-20T22:43:13.540Z,3.47
2017-10-20T22:45:41.050Z,3.77
2017-10-20T22:48:08.543Z,5.97
2017-10-20T22:50:36.055Z,6.23
2017-10-20T22:53:03.550Z,4.73
2017-10-20T22:55:31.075Z,7.20
2017-10-20T22:57:58.574Z,8.23
2017-10-20T23:00:26.082Z,5.17
2017-10-20T23:02:53.575Z,13.60
2017-10-20T23:05:21.085Z,5.37
2017-10-20T23:07:49.343Z,5.80
2017-10-20T23:10:17.622Z,9.73
2017-10-20T23:12:45.878Z,5.17
2017-10-20T23:15:13.392Z,5.47
2017-10-20T23:17:40.881Z,5.73
2017-10-20T23:20:08.390Z,6.20
2017-10-20T23:22:36.647Z,6.80
2017-10-20T23:25:04.167Z,5.50
2017-10-20T23:27:31.663Z,5.33
2017-10-20T23:29:59.953Z,2.63
2017-10-20T23:32:28.211Z,3.03
2017-10-20T23:34:55.721Z,5.93
2017-10-20T23:37:23.210Z,3.67
2017-10-20T23:39:50.702Z,2.60
2017-10-20T23:42:18.973Z,5.63
2017-10-20T23:44:47.234Z,5.70
2017-10-20T23:47:14.751Z,6.90
2017-10-20T23:49:42.242Z,4.63
2017-10-20T23:52:09.755Z,8.40
2017-10-20T23:54:37.242Z,3.07
2017-10-20T23:57:05.518Z,4.63
2017-10-20T23:59:33.770Z,4.53
